createdAt,value
2023-01-30T00:03:41.935Z,87.24
2023-01-30T00:08:41.815Z,87.18
2023-01-30T00:13:42.813Z,87.11
2023-01-30T00:18:44.035Z,87.03
2023-01-30T00:23:50.948Z,87.01
2023-01-30T00:28:49.790Z,87.03
2023-01-30T00:33:49.287Z,87.07
2023-01-30T00:38:51.606Z,87.01
2023-01-30T00:44:08.751Z,87.08
2023-01-30T00:49:09.693Z,87.04
2023-01-30T00:54:10.282Z,87.04
2023-01-30T00:59:10.277Z,87.13
2023-01-30T01:04:12.550Z,87.18
2023-01-30T01:09:12.971Z,87.14
2023-01-30T01:14:13.164Z,87.13
2023-01-30T01:19:13.872Z,87.10
2023-01-30T01:24:17.292Z,86.96
2023-01-30T01:29:18.719Z,86.89
2023-01-30T01:34:18.220Z,86.84
2023-01-30T01:39:17.540Z,86.64
2023-01-30T01:44:18.471Z,86.50
2023-01-30T01:49:25.646Z,86.36
2023-01-30T01:54:35.458Z,86.21
2023-01-30T01:59:43.461Z,86.00
2023-01-30T02:05:05.736Z,85.93
2023-01-30T02:10:06.617Z,85.80
2023-01-30T02:15:08.320Z,85.67
2023-01-30T02:20:18.934Z,85.51
2023-01-30T02:26:06.879Z,85.17
2023-01-30T02:31:29.274Z,84.99
2023-01-30T02:36:48.016Z,84.93
2023-01-30T02:42:02.011Z,84.80
2023-01-30T02:47:09.631Z,84.50
2023-01-30T02:52:13.176Z,84.04
2023-01-30T02:57:26.569Z,83.90
2023-01-30T03:03:08.699Z,83.65
2023-01-30T03:08:27.388Z,83.17
2023-01-30T03:13:43.974Z,82.99
2023-01-30T03:18:46.676Z,82.55
2023-01-30T03:23:51.020Z,82.56
2023-01-30T03:28:53.580Z,82.46
2023-01-30T03:33:52.756Z,82.25
2023-01-30T03:38:52.784Z,82.16
2023-01-30T03:43:52.956Z,82.15
2023-01-30T03:48:51.765Z,82.19
2023-01-30T03:53:51.598Z,82.49
2023-01-30T03:58:51.129Z,82.84
2023-01-30T04:03:53.741Z,83.21
2023-01-30T04:08:55.549Z,83.43
2023-01-30T04:14:16.106Z,83.64
2023-01-30T04:19:37.635Z,83.79
2023-01-30T04:24:37.013Z,83.72
2023-01-30T04:29:36.269Z,83.83
2023-01-30T04:34:36.277Z,84.16
2023-01-30T04:39:35.976Z,84.06
2023-01-30T04:44:35.643Z,83.76
2023-01-30T04:49:45.603Z,83.50
2023-01-30T04:54:45.641Z,83.31
2023-01-30T04:59:47.272Z,83.29
2023-01-30T05:04:46.389Z,83.67
2023-01-30T05:09:45.098Z,83.71
2023-01-30T05:14:46.731Z,83.60
2023-01-30T05:19:45.885Z,83.33
2023-01-30T05:24:45.921Z,83.35
2023-01-30T05:29:45.273Z,83.44
2023-01-30T05:34:45.101Z,83.45
2023-01-30T05:39:46.383Z,83.38
2023-01-30T05:44:46.288Z,83.30
2023-01-30T05:49:46.260Z,83.04
2023-01-30T05:54:48.095Z,82.76
2023-01-30T05:59:47.862Z,82.79
2023-01-30T06:04:47.964Z,82.65
2023-01-30T06:09:47.319Z,82.36
2023-01-30T06:14:46.677Z,82.13
2023-01-30T06:19:46.518Z,81.98
2023-01-30T06:24:45.615Z,81.73
2023-01-30T06:29:45.639Z,81.56
2023-01-30T06:34:47.452Z,81.36
2023-01-30T06:39:50.155Z,81.28
2023-01-30T06:44:50.154Z,80.92
2023-01-30T06:49:50.665Z,80.67
2023-01-30T06:54:49.971Z,80.21
2023-01-30T06:59:50.031Z,79.81
2023-01-30T07:04:50.054Z,79.71
2023-01-30T07:10:05.821Z,79.72
2023-01-30T07:15:07.237Z,79.24
2023-01-30T07:20:11.398Z,78.82
2023-01-30T07:25:12.629Z,78.94
2023-01-30T07:30:15.424Z,78.82
2023-01-30T07:35:15.230Z,79.86
2023-01-30T07:40:18.388Z,80.98
2023-01-30T07:45:19.751Z,81.33
2023-01-30T07:50:24.708Z,81.75
2023-01-30T07:55:24.549Z,82.87
2023-01-30T08:00:26.378Z,84.49
2023-01-30T08:05:26.078Z,85.67
2023-01-30T08:10:25.874Z,86.11
2023-01-30T08:15:25.594Z,86.25
2023-01-30T08:20:25.112Z,86.67
2023-01-30T08:25:25.433Z,86.73
2023-01-30T08:30:26.380Z,86.82
2023-01-30T08:35:25.881Z,87.37
2023-01-30T08:40:25.213Z,87.65
2023-01-30T08:45:27.629Z,87.76
2023-01-30T08:50:27.050Z,87.91
2023-01-30T08:55:26.525Z,88.08
2023-01-30T09:00:30.578Z,88.01
2023-01-30T09:05:31.415Z,88.51
2023-01-30T09:10:31.759Z,88.86
2023-01-30T09:15:32.104Z,89.15
2023-01-30T09:20:34.805Z,89.51
2023-01-30T09:25:34.228Z,89.33
2023-01-30T09:30:34.627Z,89.19
2023-01-30T09:35:35.518Z,89.07
2023-01-30T09:40:47.638Z,89.00
2023-01-30T09:46:02.269Z,88.75
2023-01-30T09:51:19.528Z,88.53
2023-01-30T09:56:18.710Z,88.57
2023-01-30T10:01:28.792Z,89.18
2023-01-30T10:06:28.543Z,89.46
2023-01-30T10:11:45.285Z,89.15
2023-01-30T10:17:01.480Z,89.05
2023-01-30T10:22:17.959Z,89.12
2023-01-30T10:27:22.188Z,89.18
2023-01-30T10:32:31.887Z,89.19
2023-01-30T10:37:41.485Z,89.33
2023-01-30T10:42:50.842Z,89.30
2023-01-30T10:48:03.087Z,89.65
2023-01-30T10:53:17.418Z,89.93
2023-01-30T10:58:29.823Z,89.93
2023-01-30T11:03:45.671Z,89.99
2023-01-30T11:08:48.155Z,90.04
2023-01-30T11:13:46.792Z,90.02
2023-01-30T11:24:21.876Z,89.91
2023-01-30T11:29:31.844Z,89.90
2023-01-30T11:34:31.083Z,89.96
2023-01-30T11:39:35.002Z,90.01
2023-01-30T11:44:38.091Z,89.89
2023-01-30T11:49:47.663Z,89.68
2023-01-30T11:55:08.993Z,89.32
2023-01-30T12:00:20.339Z,89.11
2023-01-30T12:05:33.238Z,88.96
2023-01-30T12:10:42.040Z,88.81
2023-01-30T12:15:45.693Z,88.63
2023-01-30T12:20:58.100Z,88.54
2023-01-30T12:26:08.568Z,88.52
2023-01-30T12:31:17.955Z,88.59
2023-01-30T12:36:32.256Z,88.54
2023-01-30T12:41:48.965Z,88.60
2023-01-30T12:47:07.024Z,88.54
2023-01-30T12:52:48.051Z,88.58
2023-01-30T12:57:55.270Z,88.53
2023-01-30T13:03:21.145Z,88.35
2023-01-30T13:08:43.308Z,88.26
2023-01-30T13:13:54.286Z,88.20
2023-01-30T13:19:01.876Z,88.17
2023-01-30T13:24:21.826Z,88.13
2023-01-30T13:29:31.751Z,88.18
2023-01-30T13:34:36.402Z,88.24
2023-01-30T13:39:42.556Z,88.33
2023-01-30T13:44:46.547Z,88.39
2023-01-30T13:49:59.396Z,88.43
2023-01-30T13:55:11.495Z,88.58
2023-01-30T14:00:34.054Z,88.67
2023-01-30T14:06:21.150Z,88.78
2023-01-30T14:11:44.773Z,88.79
2023-01-30T14:16:55.031Z,88.76
2023-01-30T14:22:05.441Z,88.71
2023-01-30T14:27:32.267Z,88.69
2023-01-30T14:32:59.129Z,88.67
2023-01-30T14:38:19.261Z,88.60
2023-01-30T14:44:04.367Z,88.59
2023-01-30T14:49:19.790Z,88.50
2023-01-30T14:54:41.265Z,88.44
2023-01-30T14:59:59.341Z,88.37
2023-01-30T15:05:15.970Z,88.29
2023-01-30T15:10:33.141Z,88.25
2023-01-30T15:15:42.609Z,88.19
2023-01-30T15:21:01.921Z,88.15
2023-01-30T15:26:25.249Z,88.10
2023-01-30T15:31:26.663Z,88.10
2023-01-30T15:36:34.172Z,88.09
2023-01-30T15:41:41.804Z,88.07
2023-01-30T15:46:57.125Z,88.00
2023-01-30T15:52:03.476Z,87.96
2023-01-30T15:57:03.365Z,87.97
2023-01-30T16:02:20.770Z,87.96
2023-01-30T16:07:27.479Z,87.91
2023-01-30T16:12:32.139Z,87.83
2023-01-30T16:17:35.758Z,87.75
2023-01-30T16:22:38.494Z,87.68
2023-01-30T16:27:41.406Z,87.61
2023-01-30T16:32:41.882Z,87.51
2023-01-30T16:37:41.858Z,87.36
2023-01-30T16:42:41.373Z,87.21
2023-01-30T16:47:42.274Z,87.17
2023-01-30T16:52:52.113Z,87.10
2023-01-30T16:58:03.162Z,87.01
2023-01-30T17:03:06.987Z,86.86
2023-01-30T17:08:06.861Z,86.72
2023-01-30T17:13:28.017Z,86.70
2023-01-30T17:18:26.997Z,86.75
2023-01-30T17:23:27.990Z,86.80
2023-01-30T17:28:28.147Z,86.81
2023-01-30T17:33:28.215Z,86.88
2023-01-30T17:38:31.688Z,87.01
2023-01-30T17:43:33.397Z,87.00
2023-01-30T17:48:34.623Z,87.00
2023-01-30T17:53:33.980Z,86.94
2023-01-30T17:58:34.760Z,86.86
2023-01-30T18:03:34.007Z,86.81
2023-01-30T18:08:33.311Z,86.81
2023-01-30T18:13:34.559Z,86.86
2023-01-30T18:18:35.346Z,86.89
2023-01-30T18:23:33.883Z,86.82
2023-01-30T18:28:33.262Z,86.77
2023-01-30T18:33:32.967Z,86.67
2023-01-30T18:38:32.666Z,86.61
2023-01-30T18:43:32.535Z,86.51
2023-01-30T18:48:33.728Z,86.38
2023-01-30T18:53:35.005Z,86.18
2023-01-30T18:58:36.139Z,86.07
2023-01-30T19:03:36.066Z,85.96
2023-01-30T19:08:36.336Z,85.90
2023-01-30T19:13:36.745Z,85.81
2023-01-30T19:18:36.876Z,85.80
2023-01-30T19:23:36.302Z,85.70
2023-01-30T19:29:15.703Z,85.71
2023-01-30T19:34:30.822Z,85.82
2023-01-30T19:39:33.769Z,85.93
2023-01-30T19:44:33.267Z,86.00
2023-01-30T19:49:35.794Z,86.08
2023-01-30T19:54:37.219Z,86.18
2023-01-30T19:59:38.893Z,86.19
2023-01-30T20:04:40.750Z,86.28
2023-01-30T20:09:40.358Z,86.29
2023-01-30T20:14:45.360Z,86.31
2023-01-30T20:19:44.717Z,86.36
2023-01-30T20:24:49.374Z,86.46
2023-01-30T20:30:00.838Z,86.53
2023-01-30T20:35:00.709Z,86.59
2023-01-30T20:40:00.241Z,86.56
2023-01-30T20:45:00.741Z,86.56
2023-01-30T20:50:00.166Z,86.50
2023-01-30T20:55:02.636Z,86.54
2023-01-30T21:00:02.200Z,86.54
2023-01-30T21:05:01.837Z,86.46
2023-01-30T21:10:01.176Z,86.40
2023-01-30T21:15:00.781Z,86.40
2023-01-30T21:20:00.436Z,86.39
2023-01-30T21:24:59.731Z,86.39
2023-01-30T21:30:00.614Z,86.40
2023-01-30T21:35:01.657Z,86.43
2023-01-30T21:40:19.464Z,86.47
2023-01-30T21:45:21.194Z,86.42
2023-01-30T21:50:21.709Z,86.39
2023-01-30T21:55:22.001Z,86.24
2023-01-30T22:00:22.670Z,86.18
2023-01-30T22:05:22.062Z,86.14
2023-01-30T22:10:22.447Z,86.12
2023-01-30T22:15:22.839Z,86.09
2023-01-30T22:20:22.742Z,86.07
2023-01-30T22:25:22.521Z,86.10
2023-01-30T22:30:22.684Z,86.07
2023-01-30T22:35:22.116Z,86.08
2023-01-30T22:40:22.619Z,86.02
2023-01-30T22:45:36.265Z,86.00
2023-01-30T22:50:42.409Z,85.92
2023-01-30T22:55:52.287Z,85.96
2023-01-30T23:01:10.279Z,85.98
2023-01-30T23:06:12.837Z,86.03
2023-01-30T23:11:18.492Z,86.01
2023-01-30T23:16:22.232Z,86.01
2023-01-30T23:21:22.424Z,86.00
2023-01-30T23:26:23.037Z,85.92
2023-01-30T23:31:25.571Z,85.89
2023-01-30T23:36:25.520Z,85.82
2023-01-30T23:41:28.565Z,85.82
2023-01-30T23:46:31.143Z,85.91
2023-01-30T23:51:33.285Z,85.96
2023-01-30T23:56:37.545Z,85.93
